sensor_id;sensor_type;location;lat;lon;timestamp;temperature;humidity
55211;DHT22;41082;52.822;6.666;2024-01-30T00:01:39;7.10;99.90
55211;DHT22;41082;52.822;6.666;2024-01-30T00:04:05;7.10;99.90
55211;DHT22;41082;52.822;6.666;2024-01-30T00:06:30;7.10;99.90
55211;DHT22;41082;52.822;6.666;2024-01-30T00:08:57;7.10;99.90
55211;DHT22;41082;52.822;6.666;2024-01-30T00:11:22;7.10;99.90
55211;DHT22;41082;52.822;6.666;2024-01-30T00:13:51;7.10;99.90
55211;DHT22;41082;52.822;6.666;2024-01-30T00:16:21;7.10;99.90
55211;DHT22;41082;52.822;6.666;2024-01-30T00:18:47;7.10;99.90
55211;DHT22;41082;52.822;6.666;2024-01-30T00:21:13;7.20;99.90
55211;DHT22;41082;52.822;6.666;2024-01-30T00:23:38;7.20;99.90
55211;DHT22;41082;52.822;6.666;2024-01-30T00:26:04;7.10;99.90
55211;DHT22;41082;52.822;6.666;2024-01-30T00:28:30;7.20;99.90
55211;DHT22;41082;52.822;6.666;2024-01-30T00:30:56;7.20;99.90
55211;DHT22;41082;52.822;6.666;2024-01-30T00:33:22;7.20;99.90
55211;DHT22;41082;52.822;6.666;2024-01-30T00:35:47;7.20;99.90
55211;DHT22;41082;52.822;6.666;2024-01-30T00:38:13;7.20;99.90
55211;DHT22;41082;52.822;6.666;2024-01-30T00:40:39;7.20;99.90
55211;DHT22;41082;52.822;6.666;2024-01-30T00:43:04;7.10;99.90
55211;DHT22;41082;52.822;6.666;2024-01-30T00:45:30;7.20;99.90
55211;DHT22;41082;52.822;6.666;2024-01-30T00:47:55;7.20;99.90
55211;DHT22;41082;52.822;6.666;2024-01-30T00:50:21;7.10;99.90
55211;DHT22;41082;52.822;6.666;2024-01-30T00:52:47;7.10;99.90
55211;DHT22;41082;52.822;6.666;2024-01-30T00:55:12;7.10;99.90
55211;DHT22;41082;52.822;6.666;2024-01-30T00:57:40;7.10;99.90
55211;DHT22;41082;52.822;6.666;2024-01-30T01:00:07;7.10;99.90
55211;DHT22;41082;52.822;6.666;2024-01-30T01:02:34;7.10;99.90
55211;DHT22;41082;52.822;6.666;2024-01-30T01:05:00;7.10;99.90
55211;DHT22;41082;52.822;6.666;2024-01-30T01:07:26;7.10;99.90
55211;DHT22;41082;52.822;6.666;2024-01-30T01:09:51;7.00;99.90
55211;DHT22;41082;52.822;6.666;2024-01-30T01:12:17;7.00;99.90
55211;DHT22;41082;52.822;6.666;2024-01-30T01:14:43;7.00;99.90
55211;DHT22;41082;52.822;6.666;2024-01-30T01:17:08;7.00;99.90
55211;DHT22;41082;52.822;6.666;2024-01-30T01:19:34;7.00;99.90
55211;DHT22;41082;52.822;6.666;2024-01-30T01:21:59;7.00;99.90
55211;DHT22;41082;52.822;6.666;2024-01-30T01:24:25;7.00;99.90
55211;DHT22;41082;52.822;6.666;2024-01-30T01:26:51;7.00;99.90
55211;DHT22;41082;52.822;6.666;2024-01-30T01:29:16;6.90;99.90
55211;DHT22;41082;52.822;6.666;2024-01-30T01:31:42;6.90;99.90
55211;DHT22;41082;52.822;6.666;2024-01-30T01:34:11;6.90;99.90
55211;DHT22;41082;52.822;6.666;2024-01-30T01:36:37;7.00;99.90
55211;DHT22;41082;52.822;6.666;2024-01-30T01:39:03;7.00;99.90
55211;DHT22;41082;52.822;6.666;2024-01-30T01:41:32;7.00;99.90
55211;DHT22;41082;52.822;6.666;2024-01-30T01:43:59;7.00;99.90
55211;DHT22;41082;52.822;6.666;2024-01-30T01:46:30;6.90;99.90
55211;DHT22;41082;52.822;6.666;2024-01-30T01:48:56;7.00;99.90
55211;DHT22;41082;52.822;6.666;2024-01-30T01:51:22;6.90;99.90
55211;DHT22;41082;52.822;6.666;2024-01-30T01:53:48;6.90;99.90
55211;DHT22;41082;52.822;6.666;2024-01-30T01:56:14;6.90;99.90
55211;DHT22;41082;52.822;6.666;2024-01-30T01:58:40;7.00;99.90
55211;DHT22;41082;52.822;6.666;2024-01-30T02:01:07;7.00;99.90
55211;DHT22;41082;52.822;6.666;2024-01-30T02:03:34;7.00;99.90
55211;DHT22;41082;52.822;6.666;2024-01-30T02:06:00;7.00;99.90
55211;DHT22;41082;52.822;6.666;2024-01-30T02:08:27;7.00;99.90
55211;DHT22;41082;52.822;6.666;2024-01-30T02:10:53;7.00;99.90
55211;DHT22;41082;52.822;6.666;2024-01-30T02:13:21;7.00;99.90
55211;DHT22;41082;52.822;6.666;2024-01-30T02:15:51;7.00;99.90
55211;DHT22;41082;52.822;6.666;2024-01-30T02:18:19;7.00;99.90
55211;DHT22;41082;52.822;6.666;2024-01-30T02:20:45;7.00;99.90
55211;DHT22;41082;52.822;6.666;2024-01-30T02:23:12;7.00;99.90
55211;DHT22;41082;52.822;6.666;2024-01-30T02:25:40;7.00;99.90
55211;DHT22;41082;52.822;6.666;2024-01-30T02:28:14;7.00;99.90
55211;DHT22;41082;52.822;6.666;2024-01-30T02:30:43;7.00;99.90
55211;DHT22;41082;52.822;6.666;2024-01-30T02:33:08;7.00;99.90
55211;DHT22;41082;52.822;6.666;2024-01-30T02:35:34;7.00;99.90
55211;DHT22;41082;52.822;6.666;2024-01-30T02:37:59;7.00;99.90
55211;DHT22;41082;52.822;6.666;2024-01-30T02:40:25;7.00;99.90
55211;DHT22;41082;52.822;6.666;2024-01-30T02:42:51;7.00;99.90
55211;DHT22;41082;52.822;6.666;2024-01-30T02:45:17;6.90;99.90
55211;DHT22;41082;52.822;6.666;2024-01-30T02:47:42;6.90;99.90
55211;DHT22;41082;52.822;6.666;2024-01-30T02:50:08;6.90;99.90
55211;DHT22;41082;52.822;6.666;2024-01-30T02:52:34;6.90;99.90
55211;DHT22;41082;52.822;6.666;2024-01-30T02:55:00;6.90;99.90
55211;DHT22;41082;52.822;6.666;2024-01-30T02:57:26;6.90;99.90
55211;DHT22;41082;52.822;6.666;2024-01-30T02:59:51;6.90;99.90
55211;DHT22;41082;52.822;6.666;2024-01-30T03:02:17;6.90;99.90
55211;DHT22;41082;52.822;6.666;2024-01-30T03:04:43;6.90;99.90
55211;DHT22;41082;52.822;6.666;2024-01-30T03:07:09;6.90;99.90
55211;DHT22;41082;52.822;6.666;2024-01-30T03:09:35;6.90;99.90
55211;DHT22;41082;52.822;6.666;2024-01-30T03:12:00;6.80;99.90
55211;DHT22;41082;52.822;6.666;2024-01-30T03:14:26;6.90;99.90
55211;DHT22;41082;52.822;6.666;2024-01-30T03:16:52;6.90;99.90
55211;DHT22;41082;52.822;6.666;2024-01-30T03:19:17;6.90;99.90
55211;DHT22;41082;52.822;6.666;2024-01-30T03:21:44;6.90;99.90
55211;DHT22;41082;52.822;6.666;2024-01-30T03:24:09;6.90;99.90
55211;DHT22;41082;52.822;6.666;2024-01-30T03:26:35;6.90;99.90
55211;DHT22;41082;52.822;6.666;2024-01-30T03:29:01;6.90;99.90
55211;DHT22;41082;52.822;6.666;2024-01-30T03:31:27;6.90;99.90
55211;DHT22;41082;52.822;6.666;2024-01-30T03:33:53;6.90;99.90
55211;DHT22;41082;52.822;6.666;2024-01-30T03:36:18;6.90;99.90
55211;DHT22;41082;52.822;6.666;2024-01-30T03:38:44;6.80;99.90
55211;DHT22;41082;52.822;6.666;2024-01-30T03:41:10;6.90;99.90
55211;DHT22;41082;52.822;6.666;2024-01-30T03:43:36;7.00;99.90
55211;DHT22;41082;52.822;6.666;2024-01-30T03:46:02;6.90;99.90
55211;DHT22;41082;52.822;6.666;2024-01-30T03:48:28;6.90;99.90
55211;DHT22;41082;52.822;6.666;2024-01-30T03:50:54;7.00;99.90
55211;DHT22;41082;52.822;6.666;2024-01-30T03:53:19;6.90;99.90
55211;DHT22;41082;52.822;6.666;2024-01-30T03:55:45;7.00;99.90
55211;DHT22;41082;52.822;6.666;2024-01-30T03:58:11;7.00;99.90
55211;DHT22;41082;52.822;6.666;2024-01-30T04:00:36;7.00;99.90
55211;DHT22;41082;52.822;6.666;2024-01-30T04:03:02;7.00;99.90
55211;DHT22;41082;52.822;6.666;2024-01-30T04:05:28;7.00;99.90
55211;DHT22;41082;52.822;6.666;2024-01-30T04:07:54;7.00;99.90
55211;DHT22;41082;52.822;6.666;2024-01-30T04:10:19;7.10;99.90
55211;DHT22;41082;52.822;6.666;2024-01-30T04:12:45;7.10;99.90
55211;DHT22;41082;52.822;6.666;2024-01-30T04:15:11;7.10;99.90
55211;DHT22;41082;52.822;6.666;2024-01-30T04:17:36;7.10;99.90
55211;DHT22;41082;52.822;6.666;2024-01-30T04:20:02;7.10;99.90
55211;DHT22;41082;52.822;6.666;2024-01-30T04:22:28;7.10;99.90
55211;DHT22;41082;52.822;6.666;2024-01-30T04:24:53;7.10;99.90
55211;DHT22;41082;52.822;6.666;2024-01-30T04:27:19;7.10;99.90
55211;DHT22;41082;52.822;6.666;2024-01-30T04:29:45;7.10;99.90
55211;DHT22;41082;52.822;6.666;2024-01-30T04:32:10;7.10;99.90
55211;DHT22;41082;52.822;6.666;2024-01-30T04:34:36;7.20;99.90
55211;DHT22;41082;52.822;6.666;2024-01-30T04:37:02;7.10;99.90
55211;DHT22;41082;52.822;6.666;2024-01-30T04:39:28;7.10;99.90
55211;DHT22;41082;52.822;6.666;2024-01-30T04:41:54;7.20;99.90
55211;DHT22;41082;52.822;6.666;2024-01-30T04:44:20;7.20;99.90
55211;DHT22;41082;52.822;6.666;2024-01-30T04:46:45;7.20;99.90
55211;DHT22;41082;52.822;6.666;2024-01-30T04:49:11;7.20;99.90
55211;DHT22;41082;52.822;6.666;2024-01-30T04:51:36;7.20;99.90
55211;DHT22;41082;52.822;6.666;2024-01-30T04:54:02;7.20;99.90
55211;DHT22;41082;52.822;6.666;2024-01-30T04:56:28;7.20;99.90
55211;DHT22;41082;52.822;6.666;2024-01-30T04:58:53;7.20;99.90
55211;DHT22;41082;52.822;6.666;2024-01-30T05:01:19;7.20;99.90
55211;DHT22;41082;52.822;6.666;2024-01-30T05:03:45;7.30;99.90
55211;DHT22;41082;52.822;6.666;2024-01-30T05:06:10;7.30;99.90
55211;DHT22;41082;52.822;6.666;2024-01-30T05:08:36;7.30;99.90
55211;DHT22;41082;52.822;6.666;2024-01-30T05:11:05;7.30;99.90
55211;DHT22;41082;52.822;6.666;2024-01-30T05:13:31;7.30;99.90
55211;DHT22;41082;52.822;6.666;2024-01-30T05:15:57;7.30;99.90
55211;DHT22;41082;52.822;6.666;2024-01-30T05:18:22;7.30;99.90
55211;DHT22;41082;52.822;6.666;2024-01-30T05:20:50;7.30;99.90
55211;DHT22;41082;52.822;6.666;2024-01-30T05:23:15;7.30;99.90
55211;DHT22;41082;52.822;6.666;2024-01-30T05:25:41;7.40;99.90
55211;DHT22;41082;52.822;6.666;2024-01-30T05:28:07;7.40;99.90
55211;DHT22;41082;52.822;6.666;2024-01-30T05:30:32;7.40;99.90
55211;DHT22;41082;52.822;6.666;2024-01-30T05:32:58;7.40;99.90
55211;DHT22;41082;52.822;6.666;2024-01-30T05:35:23;7.40;99.90
55211;DHT22;41082;52.822;6.666;2024-01-30T05:37:49;7.30;99.90
55211;DHT22;41082;52.822;6.666;2024-01-30T05:40:16;7.30;99.90
55211;DHT22;41082;52.822;6.666;2024-01-30T05:42:42;7.40;99.90
55211;DHT22;41082;52.822;6.666;2024-01-30T05:45:08;7.40;99.90
55211;DHT22;41082;52.822;6.666;2024-01-30T05:47:34;7.40;99.90
55211;DHT22;41082;52.822;6.666;2024-01-30T05:50:00;7.40;99.90
55211;DHT22;41082;52.822;6.666;2024-01-30T05:52:26;7.40;99.90
55211;DHT22;41082;52.822;6.666;2024-01-30T05:54:51;7.40;99.90
55211;DHT22;41082;52.822;6.666;2024-01-30T05:57:17;7.40;99.90
55211;DHT22;41082;52.822;6.666;2024-01-30T05:59:44;7.40;99.90
55211;DHT22;41082;52.822;6.666;2024-01-30T06:02:13;7.40;99.90
55211;DHT22;41082;52.822;6.666;2024-01-30T06:04:39;7.40;99.90
55211;DHT22;41082;52.822;6.666;2024-01-30T06:07:04;7.40;99.90
55211;DHT22;41082;52.822;6.666;2024-01-30T06:09:31;7.40;99.90
55211;DHT22;41082;52.822;6.666;2024-01-30T06:11:57;7.40;99.90
55211;DHT22;41082;52.822;6.666;2024-01-30T06:14:24;7.40;99.90
55211;DHT22;41082;52.822;6.666;2024-01-30T06:16:49;7.50;99.90
55211;DHT22;41082;52.822;6.666;2024-01-30T06:19:15;7.40;99.90
55211;DHT22;41082;52.822;6.666;2024-01-30T06:21:41;7.50;99.90
55211;DHT22;41082;52.822;6.666;2024-01-30T06:24:06;7.50;99.90
55211;DHT22;41082;52.822;6.666;2024-01-30T06:26:32;7.40;99.90
55211;DHT22;41082;52.822;6.666;2024-01-30T06:28:58;7.50;99.90
55211;DHT22;41082;52.822;6.666;2024-01-30T06:31:23;7.50;99.90
55211;DHT22;41082;52.822;6.666;2024-01-30T06:33:49;7.40;99.90
55211;DHT22;41082;52.822;6.666;2024-01-30T06:36:16;7.50;99.90
55211;DHT22;41082;52.822;6.666;2024-01-30T06:38:41;7.40;99.90
55211;DHT22;41082;52.822;6.666;2024-01-30T06:41:07;7.50;99.90
55211;DHT22;41082;52.822;6.666;2024-01-30T06:43:33;7.50;99.90
55211;DHT22;41082;52.822;6.666;2024-01-30T06:45:58;7.40;99.90
55211;DHT22;41082;52.822;6.666;2024-01-30T06:48:25;7.50;99.90
55211;DHT22;41082;52.822;6.666;2024-01-30T06:50:53;7.50;99.90
55211;DHT22;41082;52.822;6.666;2024-01-30T06:53:19;7.50;99.90
55211;DHT22;41082;52.822;6.666;2024-01-30T06:55:45;7.50;99.90
55211;DHT22;41082;52.822;6.666;2024-01-30T06:58:10;7.50;99.90
55211;DHT22;41082;52.822;6.666;2024-01-30T07:00:36;7.50;99.90
55211;DHT22;41082;52.822;6.666;2024-01-30T07:03:02;7.50;99.90
55211;DHT22;41082;52.822;6.666;2024-01-30T07:05:28;7.50;99.90
55211;DHT22;41082;52.822;6.666;2024-01-30T07:07:53;7.50;99.90
55211;DHT22;41082;52.822;6.666;2024-01-30T07:10:19;7.50;99.90
55211;DHT22;41082;52.822;6.666;2024-01-30T07:12:45;7.50;99.90
55211;DHT22;41082;52.822;6.666;2024-01-30T07:15:10;7.50;99.90
55211;DHT22;41082;52.822;6.666;2024-01-30T07:17:36;7.50;99.90
55211;DHT22;41082;52.822;6.666;2024-01-30T07:20:03;7.50;99.90
55211;DHT22;41082;52.822;6.666;2024-01-30T07:22:31;7.50;99.90
55211;DHT22;41082;52.822;6.666;2024-01-30T07:24:57;7.50;99.90
55211;DHT22;41082;52.822;6.666;2024-01-30T07:27:23;7.60;99.90
55211;DHT22;41082;52.822;6.666;2024-01-30T07:29:49;7.60;99.90
55211;DHT22;41082;52.822;6.666;2024-01-30T07:32:14;7.60;99.90
55211;DHT22;41082;52.822;6.666;2024-01-30T07:34:40;7.60;99.90
55211;DHT22;41082;52.822;6.666;2024-01-30T07:37:05;7.60;99.90
55211;DHT22;41082;52.822;6.666;2024-01-30T07:39:34;7.60;99.90
55211;DHT22;41082;52.822;6.666;2024-01-30T07:42:00;7.60;99.90
55211;DHT22;41082;52.822;6.666;2024-01-30T07:44:25;7.60;99.90
55211;DHT22;41082;52.822;6.666;2024-01-30T07:46:51;7.60;99.90
55211;DHT22;41082;52.822;6.666;2024-01-30T07:49:17;7.60;99.90
55211;DHT22;41082;52.822;6.666;2024-01-30T07:51:42;7.60;99.90
55211;DHT22;41082;52.822;6.666;2024-01-30T07:54:15;7.70;99.90
55211;DHT22;41082;52.822;6.666;2024-01-30T07:56:40;7.70;99.90
55211;DHT22;41082;52.822;6.666;2024-01-30T07:59:10;7.70;99.90
55211;DHT22;41082;52.822;6.666;2024-01-30T08:01:36;7.70;99.90
55211;DHT22;41082;52.822;6.666;2024-01-30T08:04:02;7.70;99.90
55211;DHT22;41082;52.822;6.666;2024-01-30T08:06:28;7.70;99.90
55211;DHT22;41082;52.822;6.666;2024-01-30T08:08:53;7.70;99.90
55211;DHT22;41082;52.822;6.666;2024-01-30T08:11:22;7.70;99.90
55211;DHT22;41082;52.822;6.666;2024-01-30T08:13:52;7.80;99.90
55211;DHT22;41082;52.822;6.666;2024-01-30T08:16:18;7.80;99.90
55211;DHT22;41082;52.822;6.666;2024-01-30T08:18:43;7.80;99.90
55211;DHT22;41082;52.822;6.666;2024-01-30T08:21:09;7.80;99.90
55211;DHT22;41082;52.822;6.666;2024-01-30T08:23:35;7.90;99.90
55211;DHT22;41082;52.822;6.666;2024-01-30T08:26:00;7.90;99.90
55211;DHT22;41082;52.822;6.666;2024-01-30T08:28:26;7.90;99.90
55211;DHT22;41082;52.822;6.666;2024-01-30T08:30:52;8.00;99.90
55211;DHT22;41082;52.822;6.666;2024-01-30T08:33:18;8.00;99.90
55211;DHT22;41082;52.822;6.666;2024-01-30T08:35:44;8.00;99.90
55211;DHT22;41082;52.822;6.666;2024-01-30T08:38:09;8.10;99.90
55211;DHT22;41082;52.822;6.666;2024-01-30T08:40:37;8.10;99.90
55211;DHT22;41082;52.822;6.666;2024-01-30T08:43:03;8.10;99.90
55211;DHT22;41082;52.822;6.666;2024-01-30T08:45:29;8.10;99.90
55211;DHT22;41082;52.822;6.666;2024-01-30T08:47:56;8.20;99.90
55211;DHT22;41082;52.822;6.666;2024-01-30T08:50:22;8.20;99.90
55211;DHT22;41082;52.822;6.666;2024-01-30T08:52:47;8.30;99.90
55211;DHT22;41082;52.822;6.666;2024-01-30T08:55:13;8.30;99.90
55211;DHT22;41082;52.822;6.666;2024-01-30T08:57:39;8.30;99.90
55211;DHT22;41082;52.822;6.666;2024-01-30T09:00:05;8.40;99.90
55211;DHT22;41082;52.822;6.666;2024-01-30T09:02:32;8.40;99.90
55211;DHT22;41082;52.822;6.666;2024-01-30T09:04:58;8.50;99.90
55211;DHT22;41082;52.822;6.666;2024-01-30T09:07:24;8.50;99.90
55211;DHT22;41082;52.822;6.666;2024-01-30T09:09:50;8.50;99.90
55211;DHT22;41082;52.822;6.666;2024-01-30T09:12:15;8.50;99.90
55211;DHT22;41082;52.822;6.666;2024-01-30T09:14:41;8.50;99.90
55211;DHT22;41082;52.822;6.666;2024-01-30T09:17:07;8.60;99.90
55211;DHT22;41082;52.822;6.666;2024-01-30T09:19:33;8.60;99.90
55211;DHT22;41082;52.822;6.666;2024-01-30T09:21:58;8.60;99.90
55211;DHT22;41082;52.822;6.666;2024-01-30T09:24:25;8.70;99.90
55211;DHT22;41082;52.822;6.666;2024-01-30T09:26:51;8.70;99.90
55211;DHT22;41082;52.822;6.666;2024-01-30T09:29:17;8.70;99.90
55211;DHT22;41082;52.822;6.666;2024-01-30T09:31:46;8.80;99.90
55211;DHT22;41082;52.822;6.666;2024-01-30T09:34:12;8.80;99.90
55211;DHT22;41082;52.822;6.666;2024-01-30T09:36:38;8.90;99.90
55211;DHT22;41082;52.822;6.666;2024-01-30T09:39:03;8.90;99.90
55211;DHT22;41082;52.822;6.666;2024-01-30T09:41:32;8.90;99.90
55211;DHT22;41082;52.822;6.666;2024-01-30T09:43:59;9.00;99.90
55211;DHT22;41082;52.822;6.666;2024-01-30T09:46:28;9.00;99.90
55211;DHT22;41082;52.822;6.666;2024-01-30T09:48:55;9.10;99.90
55211;DHT22;41082;52.822;6.666;2024-01-30T09:51:23;9.10;99.90
55211;DHT22;41082;52.822;6.666;2024-01-30T09:53:49;9.20;99.90
55211;DHT22;41082;52.822;6.666;2024-01-30T09:56:15;9.30;99.90
55211;DHT22;41082;52.822;6.666;2024-01-30T09:58:42;9.30;99.90
55211;DHT22;41082;52.822;6.666;2024-01-30T10:01:08;9.40;99.90
55211;DHT22;41082;52.822;6.666;2024-01-30T10:03:34;9.50;99.90
55211;DHT22;41082;52.822;6.666;2024-01-30T10:06:00;9.60;99.90
55211;DHT22;41082;52.822;6.666;2024-01-30T10:08:26;9.70;99.90
55211;DHT22;41082;52.822;6.666;2024-01-30T10:10:52;9.70;99.90
55211;DHT22;41082;52.822;6.666;2024-01-30T10:13:18;9.70;99.90
55211;DHT22;41082;52.822;6.666;2024-01-30T10:15:44;9.80;99.90
55211;DHT22;41082;52.822;6.666;2024-01-30T10:18:13;9.80;99.90
55211;DHT22;41082;52.822;6.666;2024-01-30T10:20:38;9.90;99.90
55211;DHT22;41082;52.822;6.666;2024-01-30T10:23:04;9.90;99.90
55211;DHT22;41082;52.822;6.666;2024-01-30T10:25:33;9.90;99.90
55211;DHT22;41082;52.822;6.666;2024-01-30T10:27:59;10.00;99.90
55211;DHT22;41082;52.822;6.666;2024-01-30T10:30:25;10.00;99.90
55211;DHT22;41082;52.822;6.666;2024-01-30T10:32:50;10.10;99.90
55211;DHT22;41082;52.822;6.666;2024-01-30T10:35:17;10.10;99.90
55211;DHT22;41082;52.822;6.666;2024-01-30T10:37:49;10.20;99.90
55211;DHT22;41082;52.822;6.666;2024-01-30T10:40:15;10.20;99.90
55211;DHT22;41082;52.822;6.666;2024-01-30T10:42:44;10.30;99.90
55211;DHT22;41082;52.822;6.666;2024-01-30T10:45:12;10.30;99.90
55211;DHT22;41082;52.822;6.666;2024-01-30T10:47:40;10.40;99.90
55211;DHT22;41082;52.822;6.666;2024-01-30T10:50:08;10.40;99.90
55211;DHT22;41082;52.822;6.666;2024-01-30T10:52:34;10.40;99.90
55211;DHT22;41082;52.822;6.666;2024-01-30T10:55:00;10.40;99.90
55211;DHT22;41082;52.822;6.666;2024-01-30T10:57:26;10.50;99.90
55211;DHT22;41082;52.822;6.666;2024-01-30T11:00:03;10.50;99.90
55211;DHT22;41082;52.822;6.666;2024-01-30T11:02:40;10.50;99.90
55211;DHT22;41082;52.822;6.666;2024-01-30T11:05:06;10.60;99.90
55211;DHT22;41082;52.822;6.666;2024-01-30T11:07:32;10.60;99.90
55211;DHT22;41082;52.822;6.666;2024-01-30T11:12:27;10.60;99.90
55211;DHT22;41082;52.822;6.666;2024-01-30T11:15:25;10.60;99.90
55211;DHT22;41082;52.822;6.666;2024-01-30T11:17:52;10.60;99.90
55211;DHT22;41082;52.822;6.666;2024-01-30T11:20:22;10.60;99.90
55211;DHT22;41082;52.822;6.666;2024-01-30T11:22:55;10.60;99.90
55211;DHT22;41082;52.822;6.666;2024-01-30T11:25:22;10.60;99.90
55211;DHT22;41082;52.822;6.666;2024-01-30T11:27:50;10.60;99.90
55211;DHT22;41082;52.822;6.666;2024-01-30T11:30:26;10.60;99.90
55211;DHT22;41082;52.822;6.666;2024-01-30T11:33:05;10.60;99.90
55211;DHT22;41082;52.822;6.666;2024-01-30T11:35:33;10.60;99.90
55211;DHT22;41082;52.822;6.666;2024-01-30T11:38:00;10.60;99.90
55211;DHT22;41082;52.822;6.666;2024-01-30T11:40:28;10.60;99.90
55211;DHT22;41082;52.822;6.666;2024-01-30T11:42:55;10.60;99.90
55211;DHT22;41082;52.822;6.666;2024-01-30T11:45:20;10.60;99.90
55211;DHT22;41082;52.822;6.666;2024-01-30T11:47:46;10.60;99.90
55211;DHT22;41082;52.822;6.666;2024-01-30T11:50:12;10.60;99.90
55211;DHT22;41082;52.822;6.666;2024-01-30T11:52:39;10.70;99.90
55211;DHT22;41082;52.822;6.666;2024-01-30T11:55:05;10.70;99.90
55211;DHT22;41082;52.822;6.666;2024-01-30T11:57:31;10.80;99.90
55211;DHT22;41082;52.822;6.666;2024-01-30T11:59:57;10.90;99.90
55211;DHT22;41082;52.822;6.666;2024-01-30T12:02:22;10.90;99.90
55211;DHT22;41082;52.822;6.666;2024-01-30T12:04:48;11.10;99.90
55211;DHT22;41082;52.822;6.666;2024-01-30T12:07:14;11.20;99.90
55211;DHT22;41082;52.822;6.666;2024-01-30T12:09:42;11.30;99.90
55211;DHT22;41082;52.822;6.666;2024-01-30T12:12:08;11.40;99.90
55211;DHT22;41082;52.822;6.666;2024-01-30T12:14:39;11.50;99.90
55211;DHT22;41082;52.822;6.666;2024-01-30T12:17:05;11.70;99.90
55211;DHT22;41082;52.822;6.666;2024-01-30T12:19:30;11.80;99.90
55211;DHT22;41082;52.822;6.666;2024-01-30T12:21:59;11.70;99.90
55211;DHT22;41082;52.822;6.666;2024-01-30T12:24:28;11.80;99.90
55211;DHT22;41082;52.822;6.666;2024-01-30T12:26:59;11.80;99.90
55211;DHT22;41082;52.822;6.666;2024-01-30T12:29:25;11.90;99.90
55211;DHT22;41082;52.822;6.666;2024-01-30T12:31:54;11.80;99.90
55211;DHT22;41082;52.822;6.666;2024-01-30T12:34:20;11.90;99.90
55211;DHT22;41082;52.822;6.666;2024-01-30T12:36:49;11.80;99.90
55211;DHT22;41082;52.822;6.666;2024-01-30T12:39:15;11.90;99.90
55211;DHT22;41082;52.822;6.666;2024-01-30T12:41:41;11.80;99.90
55211;DHT22;41082;52.822;6.666;2024-01-30T12:44:07;11.70;99.90
55211;DHT22;41082;52.822;6.666;2024-01-30T12:46:34;11.70;99.90
55211;DHT22;41082;52.822;6.666;2024-01-30T12:49:00;11.60;99.90
55211;DHT22;41082;52.822;6.666;2024-01-30T12:51:26;11.40;99.90
55211;DHT22;41082;52.822;6.666;2024-01-30T12:53:51;11.40;99.90
55211;DHT22;41082;52.822;6.666;2024-01-30T12:56:17;11.40;99.90
55211;DHT22;41082;52.822;6.666;2024-01-30T12:58:42;11.50;99.90
55211;DHT22;41082;52.822;6.666;2024-01-30T13:01:09;11.40;99.90
55211;DHT22;41082;52.822;6.666;2024-01-30T13:03:35;11.40;99.90
55211;DHT22;41082;52.822;6.666;2024-01-30T13:06:01;11.30;99.90
55211;DHT22;41082;52.822;6.666;2024-01-30T13:08:26;11.20;99.90
55211;DHT22;41082;52.822;6.666;2024-01-30T13:10:52;11.20;99.90
55211;DHT22;41082;52.822;6.666;2024-01-30T13:13:18;11.10;99.90
55211;DHT22;41082;52.822;6.666;2024-01-30T13:15:43;10.90;99.90
55211;DHT22;41082;52.822;6.666;2024-01-30T13:18:10;10.80;99.90
55211;DHT22;41082;52.822;6.666;2024-01-30T13:20:35;10.80;99.90
55211;DHT22;41082;52.822;6.666;2024-01-30T13:23:01;10.80;99.90
55211;DHT22;41082;52.822;6.666;2024-01-30T13:25:27;10.70;99.90
55211;DHT22;41082;52.822;6.666;2024-01-30T13:27:52;10.80;99.90
55211;DHT22;41082;52.822;6.666;2024-01-30T13:30:18;10.70;99.90
55211;DHT22;41082;52.822;6.666;2024-01-30T13:32:44;10.70;99.90
55211;DHT22;41082;52.822;6.666;2024-01-30T13:35:10;10.70;99.90
55211;DHT22;41082;52.822;6.666;2024-01-30T13:37:36;10.60;99.90
55211;DHT22;41082;52.822;6.666;2024-01-30T13:40:04;10.60;99.90
55211;DHT22;41082;52.822;6.666;2024-01-30T13:42:32;10.50;99.90
55211;DHT22;41082;52.822;6.666;2024-01-30T13:44:58;10.40;99.90
55211;DHT22;41082;52.822;6.666;2024-01-30T13:47:23;10.30;99.90
55211;DHT22;41082;52.822;6.666;2024-01-30T13:49:49;10.30;99.90
55211;DHT22;41082;52.822;6.666;2024-01-30T13:52:15;10.20;99.90
55211;DHT22;41082;52.822;6.666;2024-01-30T13:54:41;10.20;99.90
55211;DHT22;41082;52.822;6.666;2024-01-30T13:57:06;10.10;99.90
55211;DHT22;41082;52.822;6.666;2024-01-30T13:59:34;10.10;99.90
55211;DHT22;41082;52.822;6.666;2024-01-30T14:01:59;10.10;99.90
55211;DHT22;41082;52.822;6.666;2024-01-30T14:04:25;10.10;99.90
55211;DHT22;41082;52.822;6.666;2024-01-30T14:06:50;10.00;99.90
55211;DHT22;41082;52.822;6.666;2024-01-30T14:09:16;10.00;99.90
55211;DHT22;41082;52.822;6.666;2024-01-30T14:11:42;10.00;99.90
55211;DHT22;41082;52.822;6.666;2024-01-30T14:14:08;10.00;99.90
55211;DHT22;41082;52.822;6.666;2024-01-30T14:16:34;10.00;99.90
55211;DHT22;41082;52.822;6.666;2024-01-30T14:18:59;9.90;99.90
55211;DHT22;41082;52.822;6.666;2024-01-30T14:21:25;9.90;99.90
55211;DHT22;41082;52.822;6.666;2024-01-30T14:23:51;9.80;99.90
55211;DHT22;41082;52.822;6.666;2024-01-30T14:26:16;9.80;99.90
55211;DHT22;41082;52.822;6.666;2024-01-30T14:28:42;9.70;99.90
55211;DHT22;41082;52.822;6.666;2024-01-30T14:31:09;9.80;99.90
55211;DHT22;41082;52.822;6.666;2024-01-30T14:33:34;9.70;99.90
55211;DHT22;41082;52.822;6.666;2024-01-30T14:36:00;9.70;99.90
55211;DHT22;41082;52.822;6.666;2024-01-30T14:38:26;9.70;99.90
55211;DHT22;41082;52.822;6.666;2024-01-30T14:40:53;9.60;99.90
55211;DHT22;41082;52.822;6.666;2024-01-30T14:43:19;9.60;99.90
55211;DHT22;41082;52.822;6.666;2024-01-30T14:45:45;9.50;99.90
55211;DHT22;41082;52.822;6.666;2024-01-30T14:48:13;9.50;99.90
55211;DHT22;41082;52.822;6.666;2024-01-30T14:50:38;9.60;99.90
55211;DHT22;41082;52.822;6.666;2024-01-30T14:53:04;9.50;99.90
55211;DHT22;41082;52.822;6.666;2024-01-30T14:55:29;9.50;99.90
55211;DHT22;41082;52.822;6.666;2024-01-30T14:57:55;9.50;99.90
55211;DHT22;41082;52.822;6.666;2024-01-30T15:00:21;9.50;99.90
55211;DHT22;41082;52.822;6.666;2024-01-30T15:02:47;9.40;99.90
55211;DHT22;41082;52.822;6.666;2024-01-30T15:05:13;9.40;99.90
55211;DHT22;41082;52.822;6.666;2024-01-30T15:07:39;9.40;99.90
55211;DHT22;41082;52.822;6.666;2024-01-30T15:10:05;9.40;99.90
55211;DHT22;41082;52.822;6.666;2024-01-30T15:12:30;9.40;99.90
55211;DHT22;41082;52.822;6.666;2024-01-30T15:14:56;9.30;99.90
55211;DHT22;41082;52.822;6.666;2024-01-30T15:17:22;9.30;99.90
55211;DHT22;41082;52.822;6.666;2024-01-30T15:19:47;9.30;99.90
55211;DHT22;41082;52.822;6.666;2024-01-30T15:22:13;9.30;99.90
55211;DHT22;41082;52.822;6.666;2024-01-30T15:24:39;9.20;99.90
55211;DHT22;41082;52.822;6.666;2024-01-30T15:27:05;9.10;99.90
55211;DHT22;41082;52.822;6.666;2024-01-30T15:29:31;9.10;99.90
55211;DHT22;41082;52.822;6.666;2024-01-30T15:31:57;9.10;99.90
55211;DHT22;41082;52.822;6.666;2024-01-30T15:34:22;9.00;99.90
55211;DHT22;41082;52.822;6.666;2024-01-30T15:36:48;9.00;99.90
55211;DHT22;41082;52.822;6.666;2024-01-30T15:39:14;9.00;99.90